Time;durP1;ratioP1;P1;durP2;ratioP2;P2;SDS_P1;SDS_P2;PMS_P1;PMS_P2;Temp;Humidity;BMP_temperature;BMP_pressure;BME280_temperature;BME280_humidity;BME280_pressure;Samples;Min_cycle;Max_cycle;Signal;HPM_P1;HPM_P2
2022/05/01 00:01:11;;;;;;;18.20;10.65;;;12.00;99.90;;;;;;5042557;28;20043;-84
2022/05/01 00:03:39;;;;;;;23.13;10.63;;;11.90;99.90;;;;;;5025445;28;20032;-82
2022/05/01 00:06:10;;;;;;;14.70;10.07;;;11.90;99.90;;;;;;5050235;28;20005;-80
2022/05/01 00:08:40;;;;;;;15.63;10.27;;;11.90;99.90;;;;;;5056979;28;20358;-83
2022/05/01 00:11:08;;;;;;;17.98;10.60;;;11.90;99.90;;;;;;5057733;28;20014;-83
2022/05/01 00:13:34;;;;;;;13.30;9.75;;;11.90;99.90;;;;;;5055948;28;20040;-81
2022/05/01 00:16:01;;;;;;;17.35;10.50;;;11.80;99.90;;;;;;5056880;28;20014;-82
2022/05/01 00:18:27;;;;;;;21.95;11.38;;;11.80;99.90;;;;;;5032104;28;20095;-86
2022/05/01 00:20:53;;;;;;;18.35;10.65;;;11.80;99.90;;;;;;5044541;28;20026;-83
2022/05/01 00:23:19;;;;;;;16.77;10.85;;;11.70;99.90;;;;;;5050531;28;20071;-79
2022/05/01 00:25:45;;;;;;;14.55;9.25;;;11.70;99.90;;;;;;5058014;28;20064;-80
2022/05/01 00:28:13;;;;;;;17.23;9.80;;;11.60;99.90;;;;;;5054211;28;20037;-84
2022/05/01 00:30:40;;;;;;;18.73;8.77;;;11.60;99.90;;;;;;5027142;28;20049;-81
2022/05/01 00:38:43;;;;;;;14.97;7.97;;;11.40;99.90;;;;;;5051821;28;20029;-82
2022/05/01 00:41:11;;;;;;;19.95;8.45;;;11.40;99.90;;;;;;5051617;28;20045;-84
2022/05/01 00:43:56;;;;;;;17.52;9.10;;;11.40;99.90;;;;;;5043627;28;20038;-83
2022/05/01 00:46:23;;;;;;;15.35;8.90;;;11.30;99.90;;;;;;5042364;28;20032;-80
2022/05/01 00:48:49;;;;;;;14.30;8.65;;;11.30;99.90;;;;;;5036372;28;20025;-80
2022/05/01 00:51:16;;;;;;;16.02;8.38;;;11.20;99.90;;;;;;5032474;28;20041;-84
2022/05/01 00:53:43;;;;;;;16.23;11.50;;;11.20;99.90;;;;;;5032890;28;20032;-85
2022/05/01 00:56:09;;;;;;;15.98;10.45;;;11.10;99.90;;;;;;5046040;28;20025;-83
2022/05/01 00:58:37;;;;;;;17.58;9.05;;;11.10;99.90;;;;;;5022138;28;20528;-83
2022/05/01 01:01:03;;;;;;;15.73;9.30;;;11.00;99.90;;;;;;5044743;28;20049;-83
2022/05/01 01:03:29;;;;;;;18.60;9.95;;;11.00;99.90;;;;;;5049145;28;20029;-81
2022/05/01 01:05:55;;;;;;;20.27;11.07;;;10.90;99.90;;;;;;5052676;28;20025;-82
2022/05/01 01:08:21;;;;;;;15.40;9.70;;;11.00;99.90;;;;;;5053714;28;20037;-83
2022/05/01 01:10:46;;;;;;;15.30;8.88;;;10.90;99.90;;;;;;5048240;28;20037;-84
2022/05/01 01:13:12;;;;;;;13.75;8.50;;;10.90;99.90;;;;;;5057093;28;20014;-81
2022/05/01 01:15:38;;;;;;;14.05;9.07;;;10.90;99.90;;;;;;5033915;28;20088;-83
2022/05/01 01:18:04;;;;;;;16.48;9.65;;;10.80;99.90;;;;;;5025356;28;20030;-83
2022/05/01 01:20:31;;;;;;;18.90;9.80;;;10.80;99.90;;;;;;5042537;28;20029;-84
2022/05/01 01:23:01;;;;;;;15.70;8.93;;;10.80;99.90;;;;;;5052731;23;20037;-85
2022/05/01 01:25:30;;;;;;;12.90;8.88;;;10.80;99.90;;;;;;5048515;28;20386;-85
2022/05/01 01:28:05;;;;;;;15.55;9.43;;;10.80;99.90;;;;;;5046533;28;20060;-85
2022/05/01 01:33:17;;;;;;;19.50;10.57;;;10.80;99.90;;;;;;5044055;28;20446;-86
2022/05/01 01:35:45;;;;;;;16.58;10.82;;;10.90;99.90;;;;;;5043569;28;20018;-85
2022/05/01 01:38:11;;;;;;;18.45;10.95;;;11.00;99.90;;;;;;5041498;28;20077;-84
2022/05/01 01:40:51;;;;;;;19.58;11.15;;;11.10;99.90;;;;;;5041898;28;20040;-85
2022/05/01 01:43:19;;;;;;;18.98;12.10;;;11.20;99.90;;;;;;5045574;28;20033;-87
2022/05/01 01:45:46;;;;;;;16.85;11.40;;;11.30;99.90;;;;;;5047783;28;20029;-85
2022/05/01 01:48:17;;;;;;;18.55;11.02;;;11.30;99.90;;;;;;5050974;28;20152;-84
2022/05/01 01:50:53;;;;;;;16.67;10.90;;;11.30;99.90;;;;;;5052812;28;20451;-82
2022/05/01 01:53:19;;;;;;;22.15;12.10;;;11.30;99.90;;;;;;5056827;28;20040;-83
2022/05/01 01:55:44;;;;;;;21.65;10.93;;;11.40;99.90;;;;;;5046244;28;20030;-84
2022/05/01 01:58:10;;;;;;;19.73;11.98;;;11.40;99.90;;;;;;5045342;28;20112;-84
2022/05/01 02:00:36;;;;;;;18.40;11.02;;;11.40;99.90;;;;;;5056168;28;20057;-83
2022/05/01 02:03:04;;;;;;;18.67;11.85;;;11.40;99.90;;;;;;5056805;28;20017;-85
2022/05/01 02:05:31;;;;;;;17.77;12.18;;;11.40;99.90;;;;;;5042288;28;20099;-83
2022/05/01 02:07:57;;;;;;;18.48;11.95;;;11.50;99.90;;;;;;5048753;28;20044;-84
2022/05/01 02:10:24;;;;;;;20.02;11.95;;;11.50;99.90;;;;;;5050057;28;20439;-82
2022/05/01 02:12:50;;;;;;;16.70;11.88;;;11.50;99.90;;;;;;5049351;28;20041;-85
2022/05/01 02:15:17;;;;;;;20.45;13.30;;;11.50;99.90;;;;;;5042878;28;20029;-85
2022/05/01 02:17:48;;;;;;;18.65;12.00;;;11.40;99.90;;;;;;5040745;28;20026;-83
2022/05/01 02:20:14;;;;;;;20.45;12.50;;;11.40;99.90;;;;;;5042943;28;20033;-87
2022/05/01 02:22:41;;;;;;;19.52;12.63;;;11.40;99.90;;;;;;5046425;28;20083;-84
2022/05/01 02:25:08;;;;;;;19.05;13.25;;;11.40;99.90;;;;;;5043618;28;20500;-85
2022/05/01 02:27:34;;;;;;;18.92;12.35;;;11.40;99.90;;;;;;5047054;28;20026;-83
2022/05/01 02:30:00;;;;;;;19.27;13.40;;;11.50;99.90;;;;;;5041962;28;20552;-85
2022/05/01 02:32:27;;;;;;;21.10;12.95;;;11.50;99.90;;;;;;5045102;28;20025;-83
2022/05/01 02:34:52;;;;;;;20.15;13.38;;;11.50;99.90;;;;;;5047139;28;20372;-85
2022/05/01 02:37:18;;;;;;;19.10;12.60;;;11.40;99.90;;;;;;5044037;28;20064;-85
2022/05/01 02:39:44;;;;;;;15.50;11.57;;;11.50;99.90;;;;;;5042938;28;20037;-84
2022/05/01 02:42:09;;;;;;;16.08;11.80;;;11.40;99.90;;;;;;5045693;28;20024;-87
2022/05/01 02:44:35;;;;;;;19.73;12.50;;;11.40;99.90;;;;;;5053415;28;20033;-84
2022/05/01 02:47:01;;;;;;;18.00;12.50;;;11.40;99.90;;;;;;5042513;28;20033;-83
2022/05/01 02:49:27;;;;;;;19.58;13.02;;;11.40;99.90;;;;;;5050419;28;20032;-82
2022/05/01 02:51:53;;;;;;;20.42;13.52;;;11.50;99.90;;;;;;5060849;28;20028;-81
2022/05/01 02:54:21;;;;;;;18.13;12.68;;;11.50;99.90;;;;;;5058008;28;20045;-82
2022/05/01 02:56:49;;;;;;;18.27;12.38;;;11.50;99.90;;;;;;5056980;28;20021;-84
2022/05/01 02:59:17;;;;;;;30.13;12.43;;;11.50;99.90;;;;;;5049349;28;20026;-85
2022/05/01 03:01:44;;;;;;;18.73;12.65;;;11.50;99.90;;;;;;5056954;28;20043;-83
2022/05/01 03:04:11;;;;;;;20.13;11.32;;;11.40;99.90;;;;;;5059969;28;20089;-82
2022/05/01 03:06:36;;;;;;;19.25;13.27;;;11.40;99.90;;;;;;5056029;28;20036;-84
2022/05/01 03:09:04;;;;;;;20.17;12.07;;;11.40;99.90;;;;;;5044823;28;20030;-84
2022/05/01 03:11:31;;;;;;;18.83;11.90;;;11.40;99.90;;;;;;5044282;28;20500;-84
2022/05/01 03:13:58;;;;;;;17.40;11.85;;;11.40;99.90;;;;;;5044222;28;20093;-84
2022/05/01 03:16:24;;;;;;;19.60;12.93;;;11.40;99.90;;;;;;5046781;28;20017;-83
2022/05/01 03:24:18;;;;;;;19.00;12.90;;;11.30;99.90;;;;;;5054381;28;20033;-83
2022/05/01 03:26:47;;;;;;;17.17;11.73;;;11.40;99.90;;;;;;5044779;28;20025;-83
2022/05/01 03:29:17;;;;;;;18.98;12.68;;;11.40;99.90;;;;;;5055207;28;20093;-84
2022/05/01 03:31:45;;;;;;;17.48;12.20;;;11.40;99.90;;;;;;5055011;28;20034;-85
2022/05/01 03:34:11;;;;;;;18.27;12.20;;;11.50;99.90;;;;;;5049066;28;20028;-85
2022/05/01 03:36:37;;;;;;;21.10;11.93;;;11.50;99.90;;;;;;5048546;28;20017;-85
2022/05/01 03:39:05;;;;;;;20.80;12.75;;;11.60;99.90;;;;;;5041841;28;20018;-84
2022/05/01 03:41:32;;;;;;;19.70;12.77;;;11.60;99.90;;;;;;5043583;28;20032;-83
2022/05/01 03:43:58;;;;;;;18.45;12.18;;;11.60;99.90;;;;;;5043162;28;20026;-85
2022/05/01 03:46:24;;;;;;;19.63;11.95;;;11.60;99.90;;;;;;5041386;28;20105;-84
2022/05/01 03:48:51;;;;;;;19.48;11.63;;;11.60;99.90;;;;;;5044796;28;20041;-84
2022/05/01 03:51:17;;;;;;;16.42;11.18;;;11.60;99.90;;;;;;5055670;28;20136;-84
2022/05/01 03:53:45;;;;;;;18.13;12.75;;;11.60;99.90;;;;;;5055225;28;20124;-81
2022/05/01 03:56:11;;;;;;;18.63;11.73;;;11.60;99.90;;;;;;5059028;28;20029;-82
2022/05/01 03:58:38;;;;;;;19.40;12.52;;;11.60;99.90;;;;;;5058602;28;20025;-83
2022/05/01 04:01:04;;;;;;;19.10;12.68;;;11.70;99.90;;;;;;5048116;28;20481;-85
2022/05/01 04:03:29;;;;;;;17.88;12.55;;;11.70;99.90;;;;;;5045329;28;20034;-84
2022/05/01 04:05:55;;;;;;;17.30;12.52;;;11.80;99.90;;;;;;5047535;28;20041;-84
2022/05/01 04:08:21;;;;;;;15.90;11.32;;;11.80;99.90;;;;;;5054352;28;20053;-83
2022/05/01 04:10:47;;;;;;;22.50;12.32;;;11.80;99.90;;;;;;5058416;28;20029;-82
2022/05/01 04:13:14;;;;;;;18.33;11.90;;;11.80;99.90;;;;;;5058203;28;20044;-83
2022/05/01 04:15:41;;;;;;;17.48;12.40;;;11.80;99.90;;;;;;5050324;28;20039;-83
2022/05/01 04:18:08;;;;;;;16.33;12.02;;;11.90;99.90;;;;;;5030138;28;20473;-84
2022/05/01 04:20:37;;;;;;;17.48;11.02;;;12.00;99.90;;;;;;5049571;28;20025;-84
2022/05/01 04:23:06;;;;;;;17.70;10.90;;;12.00;99.90;;;;;;5023131;28;20018;-83
2022/05/01 04:25:33;;;;;;;17.45;11.48;;;12.10;99.90;;;;;;5041052;28;20017;-83
2022/05/01 04:28:08;;;;;;;15.07;11.15;;;12.20;99.90;;;;;;5057212;28;20025;-83
2022/05/01 04:30:34;;;;;;;13.88;10.63;;;12.30;99.90;;;;;;5057683;28;20025;-82
2022/05/01 04:33:09;;;;;;;21.83;10.60;;;12.30;99.90;;;;;;5056421;28;20040;-83
2022/05/01 04:35:40;;;;;;;18.80;12.30;;;12.40;99.90;;;;;;5058102;28;20017;-83
2022/05/01 04:38:08;;;;;;;17.48;11.35;;;12.50;99.90;;;;;;5058054;28;20102;-83
2022/05/01 04:40:40;;;;;;;16.58;11.38;;;12.60;99.90;;;;;;5058788;28;20013;-83
2022/05/01 04:43:11;;;;;;;20.73;11.02;;;12.60;99.90;;;;;;5057533;28;20049;-84
2022/05/01 04:45:39;;;;;;;20.30;11.48;;;12.70;99.90;;;;;;5058739;28;20044;-82
2022/05/01 04:48:06;;;;;;;19.60;11.43;;;12.80;99.90;;;;;;5058408;28;20020;-83
2022/05/01 04:50:32;;;;;;;18.15;11.65;;;12.80;99.90;;;;;;5057414;28;20041;-83
2022/05/01 04:53:01;;;;;;;15.82;10.20;;;12.90;99.90;;;;;;5058108;28;20069;-82
2022/05/01 04:55:30;;;;;;;18.08;11.18;;;12.90;99.90;;;;;;5057952;28;20032;-83
2022/05/01 04:57:57;;;;;;;15.27;10.43;;;13.00;99.90;;;;;;5056105;28;20042;-82
2022/05/01 05:00:23;;;;;;;15.45;11.10;;;13.00;99.90;;;;;;5055474;28;20096;-83
2022/05/01 05:02:53;;;;;;;15.70;10.85;;;13.20;99.90;;;;;;5054524;28;20104;-84
2022/05/01 05:05:20;;;;;;;18.38;11.73;;;13.20;99.90;;;;;;5056391;28;20041;-85
2022/05/01 05:07:47;;;;;;;16.23;10.45;;;13.20;99.90;;;;;;5054871;28;20060;-84
2022/05/01 05:10:14;;;;;;;18.10;10.85;;;13.30;99.90;;;;;;5056937;28;20029;-84
2022/05/01 05:12:42;;;;;;;16.15;11.10;;;13.40;99.90;;;;;;5052192;28;20012;-84
2022/05/01 05:15:10;;;;;;;18.20;11.30;;;13.40;99.90;;;;;;5047217;28;20030;-83
2022/05/01 05:17:37;;;;;;;17.45;10.57;;;13.50;99.90;;;;;;5050232;28;20029;-85
2022/05/01 05:20:05;;;;;;;15.32;10.93;;;13.50;99.90;;;;;;5057773;28;20101;-81
2022/05/01 05:22:31;;;;;;;17.27;10.93;;;13.60;99.90;;;;;;5058591;28;20082;-83
2022/05/01 05:24:57;;;;;;;15.80;11.00;;;13.70;99.90;;;;;;5058868;28;20028;-82
2022/05/01 05:27:25;;;;;;;18.38;11.93;;;13.80;99.90;;;;;;5058526;28;20013;-82
2022/05/01 05:29:58;;;;;;;17.00;12.10;;;13.90;99.90;;;;;;5058370;28;20029;-83
2022/05/01 05:32:25;;;;;;;14.93;11.05;;;13.90;99.90;;;;;;5058183;28;20056;-84
2022/05/01 05:34:51;;;;;;;19.55;11.25;;;14.10;99.90;;;;;;5058146;28;20014;-83
2022/05/01 05:37:18;;;;;;;20.38;11.27;;;14.10;99.90;;;;;;5058646;28;20079;-83
2022/05/01 05:39:44;;;;;;;17.30;12.02;;;14.20;99.90;;;;;;5057832;28;20025;-82
2022/05/01 05:42:11;;;;;;;17.08;11.52;;;14.20;99.90;;;;;;5058143;28;20025;-83
2022/05/01 05:44:38;;;;;;;18.85;10.50;;;14.30;99.90;;;;;;5056471;28;20026;-82
2022/05/01 05:47:04;;;;;;;14.95;11.07;;;14.50;99.90;;;;;;5055069;28;20049;-83
2022/05/01 05:49:31;;;;;;;17.08;11.82;;;14.60;99.90;;;;;;5055881;28;20073;-84
2022/05/01 05:51:58;;;;;;;16.75;10.65;;;14.60;99.90;;;;;;5054028;28;20032;-85
2022/05/01 05:54:24;;;;;;;15.45;11.52;;;14.60;99.90;;;;;;5053899;28;20044;-86
2022/05/01 05:56:50;;;;;;;16.42;10.85;;;14.60;99.90;;;;;;5051716;28;20033;-86
2022/05/01 05:59:16;;;;;;;15.63;10.77;;;14.70;99.90;;;;;;5033784;28;20562;-85
2022/05/01 06:01:42;;;;;;;15.15;11.13;;;14.90;99.90;;;;;;5053893;28;20118;-83
2022/05/01 06:04:08;;;;;;;17.08;10.93;;;14.80;99.90;;;;;;5050093;28;20026;-85
2022/05/01 06:06:34;;;;;;;17.10;11.63;;;14.80;99.90;;;;;;5050641;28;20047;-84
2022/05/01 06:09:01;;;;;;;15.00;11.18;;;14.70;99.90;;;;;;5048096;28;20051;-84
2022/05/01 06:11:27;;;;;;;16.17;11.75;;;14.70;99.90;;;;;;5053515;28;20085;-83
2022/05/01 06:13:54;;;;;;;14.75;10.70;;;14.70;99.90;;;;;;5056551;28;20029;-84
2022/05/01 06:16:20;;;;;;;15.93;11.32;;;14.70;99.90;;;;;;5055104;28;20029;-84
2022/05/01 06:18:47;;;;;;;18.60;10.18;;;14.80;99.90;;;;;;5054772;28;20065;-84
2022/05/01 06:21:13;;;;;;;15.60;10.45;;;14.90;99.90;;;;;;5053681;28;20050;-86
2022/05/01 06:23:40;;;;;;;15.13;10.75;;;15.00;99.90;;;;;;5056302;28;20033;-86
2022/05/01 06:26:07;;;;;;;14.45;10.77;;;15.00;99.90;;;;;;5053706;28;20044;-83
2022/05/01 06:28:33;;;;;;;17.20;11.65;;;15.00;99.90;;;;;;5051156;28;20022;-84
2022/05/01 06:31:00;;;;;;;17.77;11.80;;;15.00;99.90;;;;;;5049762;28;20041;-83
2022/05/01 06:33:27;;;;;;;15.73;10.60;;;15.00;99.90;;;;;;5048305;28;20029;-84
2022/05/01 06:35:54;;;;;;;17.00;10.95;;;15.00;99.90;;;;;;5033809;28;20034;-85
2022/05/01 06:38:20;;;;;;;16.63;11.32;;;15.00;99.90;;;;;;5033702;28;20516;-84
2022/05/01 06:40:46;;;;;;;17.38;12.00;;;15.00;99.90;;;;;;5056022;28;20049;-85
2022/05/01 06:43:14;;;;;;;15.32;10.48;;;15.10;99.90;;;;;;5054855;28;20048;-82
2022/05/01 06:45:41;;;;;;;16.60;10.98;;;15.20;99.90;;;;;;5055371;28;20044;-83
2022/05/01 06:48:08;;;;;;;14.70;10.73;;;15.30;99.90;;;;;;5054296;28;20045;-84
2022/05/01 06:50:34;;;;;;;15.00;11.43;;;15.50;99.90;;;;;;5057890;28;20040;-83
2022/05/01 06:53:00;;;;;;;14.90;10.32;;;15.70;99.90;;;;;;5054988;28;20021;-84
2022/05/01 06:55:26;;;;;;;15.70;10.20;;;15.80;99.90;;;;;;5054172;28;20044;-85
2022/05/01 06:57:58;;;;;;;15.20;10.70;;;16.10;99.90;;;;;;5054001;28;20021;-86
2022/05/01 07:00:24;;;;;;;15.50;10.20;;;16.30;99.90;;;;;;5052208;28;20033;-84
2022/05/01 07:02:54;;;;;;;14.88;10.55;;;16.50;99.90;;;;;;5050002;28;20040;-86
2022/05/01 07:05:20;;;;;;;17.13;10.35;;;16.70;99.90;;;;;;5050979;28;20085;-86
2022/05/01 07:07:48;;;;;;;17.00;10.18;;;16.70;99.90;;;;;;5051863;28;20030;-85
2022/05/01 07:10:14;;;;;;;19.08;10.77;;;16.40;99.90;;;;;;5051640;28;20017;-85
2022/05/01 07:12:40;;;;;;;20.00;11.13;;;16.60;99.90;;;;;;5052410;28;20093;-86
2022/05/01 07:15:06;;;;;;;17.25;10.57;;;16.70;99.90;;;;;;5048305;28;20049;-85
2022/05/01 07:17:33;;;;;;;11.90;9.27;;;16.80;99.90;;;;;;5045105;28;20041;-85
2022/05/01 07:19:59;;;;;;;15.20;10.13;;;17.00;99.90;;;;;;5044256;28;20025;-85
2022/05/01 07:25:26;;;;;;;13.27;9.70;;;17.00;99.90;;;;;;5006927;28;20074;-87
2022/05/01 07:27:52;;;;;;;13.20;9.60;;;17.10;99.90;;;;;;5004398;28;20030;-86
2022/05/01 07:30:18;;;;;;;12.65;8.65;;;17.10;99.90;;;;;;5005988;28;20037;-85
2022/05/01 07:32:43;;;;;;;13.52;9.75;;;17.10;99.90;;;;;;5006685;28;20037;-86
2022/05/01 07:35:09;;;;;;;12.48;9.25;;;17.00;99.90;;;;;;5005404;28;20034;-85
2022/05/01 07:37:35;;;;;;;12.82;9.52;;;17.00;99.90;;;;;;5005799;28;20419;-85
2022/05/01 07:40:01;;;;;;;11.98;9.48;;;17.10;99.90;;;;;;5006611;28;20030;-85
2022/05/01 07:42:26;;;;;;;14.98;10.93;;;17.20;99.90;;;;;;5004663;28;20068;-83
2022/05/01 07:44:52;;;;;;;13.63;9.73;;;17.30;99.90;;;;;;5005128;28;20057;-86
2022/05/01 07:47:18;;;;;;;15.57;9.50;;;17.60;99.90;;;;;;5006096;28;20041;-84
2022/05/01 07:49:44;;;;;;;14.48;8.98;;;17.80;99.90;;;;;;5010900;28;20046;-86
2022/05/01 07:52:10;;;;;;;12.45;8.85;;;18.00;99.90;;;;;;5008907;28;20086;-88
2022/05/01 07:54:36;;;;;;;12.88;9.75;;;18.00;99.90;;;;;;5010562;28;20098;-83
2022/05/01 07:57:02;;;;;;;13.00;9.75;;;17.90;99.90;;;;;;5009583;28;20034;-84
2022/05/01 07:59:28;;;;;;;15.98;10.30;;;17.70;99.90;;;;;;4990899;28;20093;-87
2022/05/01 08:01:54;;;;;;;13.75;9.43;;;17.50;99.90;;;;;;4988836;28;20030;-85
2022/05/01 08:04:29;;;;;;;13.52;9.32;;;17.40;99.90;;;;;;5004767;28;20023;-85
2022/05/01 08:07:00;;;;;;;20.80;11.95;;;17.50;99.90;;;;;;5002663;28;20573;-84
2022/05/01 08:09:27;;;;;;;14.57;10.02;;;17.50;99.90;;;;;;5003657;28;20414;-85
2022/05/01 08:11:53;;;;;;;11.93;8.95;;;17.50;99.90;;;;;;5018431;28;20086;-84
2022/05/01 08:14:21;;;;;;;13.70;9.05;;;17.50;99.90;;;;;;5004710;28;20033;-85
2022/05/01 08:16:47;;;;;;;16.45;10.50;;;17.60;99.90;;;;;;5004365;28;20037;-85
2022/05/01 08:21:58;;;;;;;;;;;17.50;99.90;;;;;;5004870;28;20037;-85
2022/05/01 08:24:24;;;;;;;14.15;9.30;;;17.50;99.90;;;;;;5014472;28;19928;-83
2022/05/01 08:26:50;;;;;;;15.43;10.32;;;17.60;99.90;;;;;;5018146;28;20033;-82
2022/05/01 08:29:18;;;;;;;14.38;9.70;;;17.80;99.90;;;;;;5016975;28;20026;-85
2022/05/01 08:31:43;;;;;;;15.00;10.15;;;17.90;99.90;;;;;;5014937;28;20027;-84
2022/05/01 08:34:10;;;;;;;14.02;9.60;;;18.10;99.90;;;;;;4990626;28;20023;-86
2022/05/01 08:36:37;;;;;;;17.63;10.60;;;18.20;99.90;;;;;;5008526;28;20042;-83
2022/05/01 08:39:03;;;;;;;13.82;10.05;;;18.50;99.90;;;;;;5016478;28;20093;-84
2022/05/01 08:41:31;;;;;;;15.73;10.02;;;18.00;99.90;;;;;;5018202;28;20039;-82
2022/05/01 08:43:58;;;;;;;14.38;10.23;;;17.80;99.90;;;;;;4998838;28;20022;-85
2022/05/01 08:46:33;;;;;;;14.68;10.68;;;17.50;99.90;;;;;;5005769;28;20086;-85
2022/05/01 08:49:04;;;;;;;14.82;10.63;;;17.10;99.90;;;;;;5005070;28;20036;-86
2022/05/01 08:51:32;;;;;;;16.08;10.70;;;16.90;99.90;;;;;;5003927;28;20089;-84
2022/05/01 08:53:59;;;;;;;17.08;11.25;;;16.80;99.90;;;;;;4987347;28;20023;-86
2022/05/01 08:56:26;;;;;;;15.30;11.05;;;16.90;99.90;;;;;;5011005;28;20064;-85
2022/05/01 08:58:53;;;;;;;15.02;10.10;;;16.70;99.90;;;;;;5013569;28;20038;-85
2022/05/01 09:01:19;;;;;;;13.55;10.05;;;16.80;99.90;;;;;;5008323;28;20085;-85
2022/05/01 09:03:45;;;;;;;14.15;10.07;;;17.10;99.90;;;;;;5004511;28;20034;-85
2022/05/01 09:06:12;;;;;;;18.88;10.38;;;17.10;99.90;;;;;;5003546;28;20030;-84
2022/05/01 09:08:41;;;;;;;14.05;9.85;;;17.30;99.90;;;;;;5004296;28;20037;-86
2022/05/01 09:13:53;;;;;;;16.60;9.32;;;17.40;99.90;;;;;;5003489;28;20126;-85
2022/05/01 09:16:19;;;;;;;13.55;9.70;;;17.50;99.90;;;;;;4986959;28;20247;-85
2022/05/01 09:18:47;;;;;;;14.82;9.70;;;17.50;99.90;;;;;;5005383;28;20034;-84
2022/05/01 09:21:13;;;;;;;14.55;9.90;;;17.30;99.90;;;;;;5005524;28;20061;-83
2022/05/01 09:23:44;;;;;;;13.90;9.57;;;17.00;99.90;;;;;;5004417;28;20105;-85
2022/05/01 09:26:13;;;;;;;12.60;9.50;;;16.70;99.90;;;;;;4986261;28;20582;-86
2022/05/01 09:28:51;;;;;;;13.85;9.55;;;16.40;99.90;;;;;;5007627;28;20038;-84
2022/05/01 09:31:38;;;;;;;16.50;9.38;;;16.10;99.90;;;;;;5003871;28;20042;-83
2022/05/01 09:34:24;;;;;;;13.85;9.25;;;15.90;99.90;;;;;;5004725;28;20042;-84
2022/05/01 09:36:50;;;;;;;15.27;9.32;;;15.90;99.90;;;;;;5007043;28;20038;-85
2022/05/01 09:39:24;;;;;;;13.80;8.80;;;15.90;99.90;;;;;;5007794;28;20026;-85
2022/05/01 09:41:52;;;;;;;14.02;9.25;;;15.70;99.90;;;;;;5013579;28;20085;-84
2022/05/01 09:44:19;;;;;;;15.55;9.40;;;15.70;99.90;;;;;;5012648;28;20030;-84
2022/05/01 09:46:47;;;;;;;15.15;10.02;;;15.70;99.90;;;;;;5006603;28;20045;-84
2022/05/01 09:49:14;;;;;;;13.13;8.68;;;15.60;99.90;;;;;;5005892;28;20086;-85
2022/05/01 09:51:47;;;;;;;14.02;10.45;;;15.50;99.90;;;;;;5016627;28;20057;-83
2022/05/01 09:54:24;;;;;;;17.83;10.52;;;15.50;99.90;;;;;;5009000;28;20117;-85
2022/05/01 09:56:54;;;;;;;16.60;11.15;;;15.50;99.90;;;;;;5009811;28;20094;-84
2022/05/01 09:59:21;;;;;;;15.10;10.40;;;15.60;99.90;;;;;;5008994;28;20034;-84
2022/05/01 10:02:03;;;;;;;16.20;10.15;;;15.70;99.90;;;;;;4988051;28;20038;-86
2022/05/01 10:04:31;;;;;;;15.85;10.50;;;15.90;99.90;;;;;;5009014;28;20092;-86
2022/05/01 10:06:58;;;;;;;16.23;10.52;;;16.00;99.90;;;;;;5013254;28;20018;-84
2022/05/01 10:09:26;;;;;;;13.82;9.88;;;16.10;99.90;;;;;;5011858;28;20094;-86
2022/05/01 10:11:57;;;;;;;17.20;10.30;;;16.30;99.90;;;;;;5012051;28;20034;-84
2022/05/01 10:14:24;;;;;;;13.50;9.23;;;16.60;99.90;;;;;;4988570;28;20061;-86
2022/05/01 10:16:50;;;;;;;17.25;10.43;;;16.80;99.90;;;;;;5006593;28;20026;-85
2022/05/01 10:19:18;;;;;;;15.98;9.98;;;17.00;99.90;;;;;;5004429;28;20030;-84
2022/05/01 10:21:49;;;;;;;12.48;9.13;;;17.00;99.90;;;;;;4988301;28;20022;-84
2022/05/01 10:24:16;;;;;;;13.32;9.65;;;16.90;99.90;;;;;;5007636;28;20037;-86
2022/05/01 10:26:55;;;;;;;13.25;9.38;;;16.90;99.90;;;;;;5009060;28;20019;-85
2022/05/01 10:29:40;;;;;;;13.35;9.15;;;16.90;99.90;;;;;;5011139;28;20057;-82
2022/05/01 10:32:24;;;;;;;15.55;8.98;;;17.00;99.90;;;;;;5012968;28;20014;-85
2022/05/01 10:35:30;;;;;;;11.88;8.45;;;17.10;99.90;;;;;;5013793;28;20050;-81
2022/05/01 10:38:50;;;;;;;12.57;8.63;;;17.30;99.90;;;;;;5016027;28;20050;-82
2022/05/01 10:41:17;;;;;;;13.68;8.73;;;17.40;99.90;;;;;;4972495;29;20132;-84
2022/05/01 10:43:56;;;;;;;12.85;8.70;;;17.30;99.90;;;;;;5011189;28;20032;-86
2022/05/01 10:46:22;;;;;;;13.55;8.93;;;17.20;99.90;;;;;;5013815;28;20046;-84
2022/05/01 10:48:48;;;;;;;12.23;8.52;;;16.80;99.90;;;;;;5010641;28;20126;-85
2022/05/01 10:51:38;;;;;;;14.88;10.27;;;16.70;99.90;;;;;;5008088;28;20030;-85
2022/05/01 10:54:10;;;;;;;15.07;9.68;;;16.30;99.90;;;;;;5007141;28;20065;-86
2022/05/01 10:56:41;;;;;;;14.98;10.00;;;16.10;99.90;;;;;;5009457;28;20066;-84
2022/05/01 10:59:29;;;;;;;14.10;10.02;;;15.80;99.90;;;;;;5013435;28;20042;-83
2022/05/01 11:01:56;;;;;;;16.00;9.65;;;15.70;99.90;;;;;;5020598;28;20015;-81
2022/05/01 11:04:22;;;;;;;13.73;9.57;;;15.70;99.90;;;;;;5020499;28;20041;-83
2022/05/01 11:06:53;;;;;;;12.80;9.73;;;15.60;99.90;;;;;;5014145;28;20072;-85
2022/05/01 11:09:23;;;;;;;16.73;10.63;;;15.50;99.90;;;;;;5012808;28;20030;-85
2022/05/01 11:11:57;;;;;;;51.40;25.05;;;15.40;99.90;;;;;;5007131;28;20041;-88
2022/05/01 11:14:51;;;;;;;14.13;9.27;;;15.30;99.90;;;;;;5005328;28;20109;-85
2022/05/01 11:17:44;;;;;;;17.52;10.18;;;15.20;99.90;;;;;;5005701;28;20596;-85
2022/05/01 11:20:19;;;;;;;16.05;9.32;;;15.00;99.90;;;;;;4990182;28;20117;-83
2022/05/01 11:22:45;;;;;;;17.25;10.02;;;14.80;99.90;;;;;;5004934;28;20034;-85
2022/05/01 11:25:38;;;;;;;14.73;10.32;;;14.70;99.90;;;;;;5004891;28;20110;-85
2022/05/01 11:28:05;;;;;;;18.98;11.38;;;14.50;99.90;;;;;;5003506;28;20073;-84
2022/05/01 11:30:31;;;;;;;15.18;10.23;;;14.20;99.90;;;;;;5013144;28;20086;-83
2022/05/01 11:33:03;;;;;;;14.45;9.80;;;14.30;99.90;;;;;;5001849;28;20037;-83
2022/05/01 11:36:05;;;;;;;17.45;10.63;;;14.40;99.90;;;;;;5005209;28;20030;-85
2022/05/01 11:38:39;;;;;;;15.57;9.50;;;14.60;99.90;;;;;;4963339;29;20039;-84
2022/05/01 11:41:06;;;;;;;12.85;9.25;;;14.90;99.90;;;;;;5000497;28;20030;-82
2022/05/01 11:43:34;;;;;;;15.15;9.20;;;15.10;99.90;;;;;;5019654;28;20046;-83
2022/05/01 11:46:01;;;;;;;12.45;8.27;;;15.30;99.90;;;;;;5003144;28;20019;-80
2022/05/01 11:48:28;;;;;;;14.05;9.00;;;15.50;99.90;;;;;;5013609;28;20066;-84
2022/05/01 11:50:58;;;;;;;10.40;7.97;;;15.60;99.90;;;;;;5011904;28;20026;-81
2022/05/01 11:53:31;;;;;;;11.10;7.13;;;15.80;99.90;;;;;;5020069;28;20046;-81
2022/05/01 12:04:33;;;;;;;10.48;6.72;;;16.40;99.90;;;;;;5010573;28;20034;-84
2022/05/01 12:07:12;;;;;;;8.10;5.28;;;16.50;99.90;;;;;;5012531;28;20010;-83
2022/05/01 12:09:39;;;;;;;7.45;5.00;;;16.60;99.90;;;;;;5016103;28;20030;-84
2022/05/01 12:12:08;;;;;;;7.68;5.00;;;16.60;99.90;;;;;;5017373;28;20014;-85
2022/05/01 12:14:34;;;;;;;7.78;4.53;;;16.80;99.90;;;;;;5017219;28;20034;-85
2022/05/01 12:17:00;;;;;;;9.45;5.45;;;16.80;99.90;;;;;;4993573;28;20024;-84
2022/05/01 12:19:40;;;;;;;6.82;5.15;;;16.90;99.90;;;;;;4998478;28;20030;-84
2022/05/01 12:22:07;;;;;;;6.97;4.45;;;17.00;99.90;;;;;;5011796;28;20034;-84
2022/05/01 12:24:34;;;;;;;7.00;4.70;;;17.10;99.90;;;;;;5008645;28;20166;-82
2022/05/01 12:27:01;;;;;;;8.93;4.70;;;17.10;99.90;;;;;;5000396;28;20026;-83
2022/05/01 12:29:29;;;;;;;5.60;3.90;;;17.20;99.90;;;;;;5017188;28;20058;-84
2022/05/01 12:32:14;;;;;;;7.93;4.75;;;17.20;99.90;;;;;;5013759;28;20046;-83
2022/05/01 12:34:46;;;;;;;11.02;6.68;;;17.20;99.90;;;;;;5014344;28;20033;-82
2022/05/01 12:37:15;;;;;;;7.78;6.07;;;17.10;99.90;;;;;;5015515;28;20082;-82
2022/05/01 12:39:43;;;;;;;8.45;5.97;;;16.90;99.90;;;;;;5015154;28;20027;-82
2022/05/01 12:45:08;;;;;;;8.68;6.00;;;17.10;99.90;;;;;;5008888;28;20045;-86
2022/05/01 12:47:39;;;;;;;8.00;5.45;;;17.50;99.90;;;;;;5003949;28;20034;-84
2022/05/01 12:50:08;;;;;;;7.97;5.53;;;17.90;99.90;;;;;;5013903;28;20041;-83
2022/05/01 12:52:36;;;;;;;7.70;5.13;;;18.20;99.90;;;;;;5018024;28;20087;-81
2022/05/01 12:55:17;;;;;;;6.72;5.20;;;18.00;99.90;;;;;;5016672;28;20030;-83
2022/05/01 12:57:53;;;;;;;8.57;6.15;;;17.60;99.90;;;;;;4981537;28;20034;-84
2022/05/01 13:00:37;;;;;;;8.70;5.78;;;17.50;99.90;;;;;;4997116;28;20094;-83
2022/05/01 13:03:30;;;;;;;11.23;6.35;;;17.30;99.90;;;;;;5012942;28;20030;-85
2022/05/01 13:06:13;;;;;;;6.88;5.00;;;17.60;99.90;;;;;;5005016;28;20437;-84
2022/05/01 13:08:41;;;;;;;6.63;4.75;;;18.00;99.90;;;;;;5003904;28;20097;-83
2022/05/01 13:11:25;;;;;;;6.15;4.50;;;18.20;99.90;;;;;;4996250;28;20057;-83
2022/05/01 13:13:55;;;;;;;5.57;4.07;;;18.30;99.90;;;;;;5009772;28;20018;-82